createdAt,value
2022-08-08T00:00:53.324Z,45.74
2022-08-08T00:06:02.902Z,45.53
2022-08-08T00:11:18.083Z,45.65
2022-08-08T00:16:24.198Z,45.25
2022-08-08T00:21:39.790Z,44.97
2022-08-08T00:26:49.247Z,45.29
2022-08-08T00:32:21.177Z,45.51
2022-08-08T00:38:01.860Z,45.64
2022-08-08T00:43:22.714Z,46.45
2022-08-08T00:49:01.453Z,45.94
2022-08-08T00:54:15.777Z,46.10
2022-08-08T00:59:46.566Z,46.35
2022-08-08T01:04:54.504Z,45.92
2022-08-08T01:10:02.477Z,45.97
2022-08-08T01:15:44.427Z,46.15
2022-08-08T01:20:53.790Z,46.05
2022-08-08T01:26:11.334Z,47.75
2022-08-08T01:32:05.143Z,47.44
2022-08-08T01:37:21.860Z,47.36
2022-08-08T01:42:42.202Z,47.36
2022-08-08T01:48:23.806Z,47.06
2022-08-08T01:55:15.982Z,47.68
2022-08-08T01:59:49.215Z,47.61
2022-08-08T02:05:07.265Z,48.06
2022-08-08T02:10:30.154Z,47.47
2022-08-08T02:15:58.184Z,47.34
2022-08-08T02:21:28.582Z,47.06
2022-08-08T02:26:34.515Z,46.96
2022-08-08T02:32:04.997Z,46.49
2022-08-08T02:37:52.089Z,46.19
2022-08-08T02:42:46.607Z,45.88
2022-08-08T02:48:05.858Z,46.68
2022-08-08T02:53:25.439Z,47.65
2022-08-08T02:58:54.556Z,48.27
2022-08-08T03:05:03.694Z,48.77
2022-08-08T03:10:31.433Z,48.82
2022-08-08T03:16:00.545Z,48.17
2022-08-08T03:21:10.121Z,47.05
2022-08-08T03:26:19.293Z,46.82
2022-08-08T03:32:06.124Z,46.86
2022-08-08T03:37:19.891Z,48.05
2022-08-08T03:42:30.085Z,48.98
2022-08-08T03:47:45.336Z,49.52
2022-08-08T03:52:47.653Z,49.55
2022-08-08T03:58:36.459Z,50.47
2022-08-08T04:03:13.434Z,49.92
2022-08-08T04:08:33.347Z,50.02
2022-08-08T04:14:03.562Z,49.42
2022-08-08T04:18:57.740Z,49.29
2022-08-08T04:24:05.416Z,49.59
2022-08-08T04:29:20.356Z,49.99
2022-08-08T04:34:22.068Z,49.38
2022-08-08T04:40:03.667Z,49.27
2022-08-08T04:44:51.568Z,49.75
2022-08-08T04:50:00.313Z,50.73
2022-08-08T04:55:04.378Z,50.12
2022-08-08T05:00:08.083Z,50.71
2022-08-08T05:05:16.240Z,50.87
2022-08-08T05:10:28.118Z,50.79
2022-08-08T05:16:36.378Z,50.83
2022-08-08T05:20:52.216Z,50.52
2022-08-08T05:26:00.075Z,50.68
2022-08-08T05:31:02.033Z,50.96
2022-08-08T05:36:25.398Z,50.32
2022-08-08T05:41:29.444Z,51.12
2022-08-08T05:46:34.369Z,51.10
2022-08-08T05:51:48.111Z,51.41
2022-08-08T05:56:51.097Z,50.90
2022-08-08T06:01:58.016Z,50.77
2022-08-08T06:07:02.649Z,49.10
2022-08-08T06:12:04.586Z,49.64
2022-08-08T06:17:06.107Z,49.26
2022-08-08T06:27:51.197Z,49.88
2022-08-08T06:32:53.501Z,50.03
2022-08-08T06:38:01.648Z,50.18
2022-08-08T06:43:04.963Z,49.57
2022-08-08T06:48:06.494Z,49.97
2022-08-08T06:53:14.373Z,48.91
2022-08-08T06:58:22.032Z,49.18
2022-08-08T07:03:51.869Z,49.15
2022-08-08T07:08:54.047Z,48.67
2022-08-08T07:14:04.302Z,48.77
2022-08-08T07:19:30.649Z,48.72
2022-08-08T07:24:48.784Z,48.76
2022-08-08T07:30:00.151Z,48.87
2022-08-08T07:35:06.469Z,49.00
2022-08-08T07:40:11.040Z,49.16
2022-08-08T07:45:22.793Z,48.49
2022-08-08T07:50:28.625Z,47.99
2022-08-08T07:55:30.203Z,47.95
2022-08-08T08:00:44.459Z,47.94
2022-08-08T08:05:50.987Z,48.15
2022-08-08T08:10:56.245Z,47.93
2022-08-08T08:16:05.199Z,46.78
2022-08-08T08:21:13.384Z,47.06
2022-08-08T08:26:27.267Z,46.33
2022-08-08T08:31:29.421Z,47.00
2022-08-08T08:36:44.550Z,46.58
2022-08-08T08:41:57.067Z,46.44
2022-08-08T08:46:59.061Z,46.31
2022-08-08T08:52:02.166Z,45.55
2022-08-08T08:57:04.230Z,45.83
2022-08-08T09:02:21.022Z,45.63
2022-08-08T09:07:24.430Z,44.57
2022-08-08T09:12:41.248Z,44.70
2022-08-08T09:17:55.669Z,45.35
2022-08-08T09:22:58.865Z,45.17
2022-08-08T09:28:00.645Z,45.77
2022-08-08T09:33:53.962Z,44.46
2022-08-08T09:38:52.614Z,44.52
2022-08-08T09:44:06.568Z,44.30
2022-08-08T09:49:41.379Z,44.50
2022-08-08T09:54:45.076Z,44.42
2022-08-08T10:00:02.854Z,44.83
2022-08-08T10:05:25.413Z,43.65
2022-08-08T10:10:33.770Z,44.39
2022-08-08T10:15:39.246Z,43.84
2022-08-08T10:20:57.591Z,43.50
2022-08-08T10:26:02.696Z,43.70
2022-08-08T10:31:25.274Z,43.80
2022-08-08T10:36:45.520Z,43.22
2022-08-08T10:42:16.881Z,43.43
2022-08-08T10:47:21.184Z,42.39
2022-08-08T10:52:31.087Z,42.71
2022-08-08T10:57:49.754Z,42.24
2022-08-08T11:02:53.326Z,42.12
2022-08-08T11:08:38.536Z,42.04
2022-08-08T11:13:29.103Z,41.91
2022-08-08T11:18:32.098Z,41.67
2022-08-08T11:23:35.108Z,41.27
2022-08-08T11:28:38.715Z,40.80
2022-08-08T11:33:52.348Z,40.67
2022-08-08T11:39:00.383Z,40.98
2022-08-08T11:44:02.465Z,39.50
2022-08-08T11:49:07.516Z,40.28
2022-08-08T11:54:31.110Z,39.96
2022-08-08T11:59:58.727Z,40.53
2022-08-08T12:05:07.695Z,38.52
2022-08-08T12:10:15.091Z,38.40
2022-08-08T12:15:30.734Z,37.65
2022-08-08T12:20:43.316Z,39.47
2022-08-08T12:25:52.528Z,38.14
2022-08-08T12:30:54.326Z,37.62
2022-08-08T12:35:55.709Z,38.26
2022-08-08T12:41:00.998Z,36.75
2022-08-08T12:46:25.056Z,37.61
2022-08-08T12:51:39.911Z,37.42
2022-08-08T12:56:41.561Z,37.12
2022-08-08T13:01:54.976Z,36.50
2022-08-08T13:07:11.835Z,36.66
2022-08-08T13:12:28.829Z,37.72
2022-08-08T13:18:08.523Z,37.10
2022-08-08T13:23:26.902Z,37.42
2022-08-08T13:28:17.389Z,38.37
2022-08-08T13:33:19.532Z,39.15
2022-08-08T13:38:21.097Z,38.26
2022-08-08T13:43:23.079Z,38.12
2022-08-08T13:48:27.741Z,40.35
2022-08-08T13:53:33.841Z,40.32
2022-08-08T13:58:37.626Z,38.43
2022-08-08T14:04:00.092Z,38.69
2022-08-08T14:09:24.710Z,38.29
2022-08-08T14:14:26.235Z,38.88
2022-08-08T14:19:56.236Z,38.29
2022-08-08T14:25:02.396Z,38.53
2022-08-08T14:30:17.972Z,39.77
2022-08-08T14:35:24.500Z,39.00
2022-08-08T14:40:39.255Z,39.49
2022-08-08T14:46:01.600Z,40.70
2022-08-08T14:51:07.429Z,40.11
2022-08-08T14:56:09.869Z,40.07
2022-08-08T15:01:23.356Z,40.20
2022-08-08T15:06:25.632Z,40.11
2022-08-08T15:11:27.167Z,40.84
2022-08-08T15:16:29.007Z,40.80
2022-08-08T15:21:30.716Z,40.64
2022-08-08T15:26:32.243Z,40.96
2022-08-08T15:32:02.843Z,41.90
2022-08-08T15:36:55.140Z,41.70
2022-08-08T15:41:56.852Z,41.40
2022-08-08T15:46:58.383Z,41.91
2022-08-08T15:52:06.000Z,41.76
2022-08-08T15:57:09.092Z,42.15
2022-08-08T16:02:13.402Z,42.84
2022-08-08T16:07:16.960Z,43.00
2022-08-08T16:13:14.556Z,43.47
2022-08-08T16:18:06.703Z,43.57
2022-08-08T16:23:02.710Z,43.98
2022-08-08T16:28:04.332Z,44.22
2022-08-08T16:33:05.869Z,43.63
2022-08-08T16:38:16.203Z,44.22
2022-08-08T16:43:28.051Z,44.56
2022-08-08T16:48:43.786Z,44.26
2022-08-08T16:55:06.468Z,45.09
2022-08-08T16:59:10.123Z,44.67
2022-08-08T17:04:11.638Z,45.17
2022-08-08T17:09:14.958Z,45.25
2022-08-08T17:14:19.032Z,46.15
2022-08-08T17:19:21.331Z,46.07
2022-08-08T17:24:27.857Z,45.95
2022-08-08T17:29:33.862Z,45.59
2022-08-08T17:35:00.040Z,46.24
2022-08-08T17:40:05.787Z,46.04
2022-08-08T17:45:23.442Z,45.83
2022-08-08T17:50:25.975Z,46.64
2022-08-08T17:56:04.983Z,46.86
2022-08-08T18:00:56.047Z,46.44
2022-08-08T18:05:59.048Z,47.03
2022-08-08T18:11:11.677Z,46.48
2022-08-08T18:16:20.370Z,46.83
2022-08-08T18:21:58.876Z,46.46
2022-08-08T18:26:54.542Z,47.43
2022-08-08T18:32:00.037Z,47.68
2022-08-08T18:37:08.211Z,47.39
2022-08-08T18:42:15.753Z,47.58
2022-08-08T18:47:17.777Z,48.43
2022-08-08T18:52:22.640Z,48.16
2022-08-08T18:57:24.523Z,48.18
2022-08-08T19:02:29.664Z,48.54
2022-08-08T19:07:33.546Z,48.84
2022-08-08T19:12:39.677Z,48.60
2022-08-08T19:18:32.495Z,48.51
2022-08-08T19:23:08.602Z,48.59
2022-08-08T19:28:17.898Z,48.36
2022-08-08T19:33:24.559Z,49.21
2022-08-08T19:38:26.188Z,48.71
2022-08-08T19:43:28.477Z,48.78
2022-08-08T19:48:33.181Z,48.77
2022-08-08T19:53:53.568Z,48.93
2022-08-08T19:58:55.765Z,49.20
2022-08-08T20:04:01.389Z,48.69
2022-08-08T20:09:08.865Z,48.81
2022-08-08T20:14:32.120Z,48.86
2022-08-08T20:19:34.451Z,49.35
2022-08-08T20:24:44.051Z,50.15
2022-08-08T20:30:00.635Z,50.14
2022-08-08T20:35:03.060Z,50.19
2022-08-08T20:40:05.593Z,50.92
2022-08-08T20:45:08.329Z,50.21
2022-08-08T20:50:10.830Z,50.29
2022-08-08T20:55:16.284Z,50.61
2022-08-08T21:00:24.544Z,50.82
2022-08-08T21:05:31.835Z,50.74
2022-08-08T21:10:33.602Z,50.94
2022-08-08T21:16:05.911Z,50.47
2022-08-08T21:20:57.877Z,51.32
2022-08-08T21:25:59.418Z,50.54
2022-08-08T21:31:01.033Z,50.96
2022-08-08T21:36:28.755Z,50.41
2022-08-08T21:41:43.155Z,50.38
2022-08-08T21:48:06.451Z,50.57
2022-08-08T21:54:32.399Z,50.19
2022-08-08T21:57:42.578Z,50.48
2022-08-08T22:02:57.489Z,50.33
2022-08-08T22:08:00.318Z,51.25
2022-08-08T22:13:17.227Z,51.32
2022-08-08T22:18:20.600Z,51.08
2022-08-08T22:23:25.307Z,51.03
2022-08-08T22:29:04.542Z,51.06
2022-08-08T22:34:13.300Z,50.86
2022-08-08T22:39:19.459Z,52.15
2022-08-08T22:44:21.980Z,51.85
2022-08-08T22:49:25.548Z,51.85
2022-08-08T22:54:34.489Z,51.79
2022-08-08T22:59:59.555Z,52.02
2022-08-08T23:05:04.879Z,51.61
2022-08-08T23:10:08.014Z,51.24
2022-08-08T23:15:10.604Z,51.41
2022-08-08T23:20:31.777Z,50.68
2022-08-08T23:25:37.439Z,51.24
2022-08-08T23:30:50.104Z,51.61
2022-08-08T23:35:59.001Z,51.00
2022-08-08T23:41:17.278Z,51.55
2022-08-08T23:49:00.269Z,51.54
2022-08-08T23:52:05.933Z,51.35
2022-08-08T23:57:25.101Z,51.30
